sensor_id;sensor_type;location;lat;lon;timestamp;pressure;altitude;pressure_sealevel;temperature;humidity
64628;BME280;59036;50.960;0.314;2022-10-03T00:01:36;100921.86;;;12.56;52.24
64628;BME280;59036;50.960;0.314;2022-10-03T00:04:22;100922.04;;;13.05;52.13
64628;BME280;59036;50.960;0.314;2022-10-03T00:07:02;100921.99;;;12.86;52.39
64628;BME280;59036;50.960;0.314;2022-10-03T00:09:46;100919.60;;;12.13;53.42
64628;BME280;59036;50.960;0.314;2022-10-03T00:12:37;100916.58;;;12.65;52.42
64628;BME280;59036;50.960;0.314;2022-10-03T00:15:11;100923.47;;;13.50;52.06
64628;BME280;59036;50.960;0.314;2022-10-03T00:17:45;100925.91;;;11.71;53.82
64628;BME280;59036;50.960;0.314;2022-10-03T00:20:38;100925.75;;;12.83;52.73
64628;BME280;59036;50.960;0.314;2022-10-03T00:23:10;100927.27;;;12.59;52.28
64628;BME280;59036;50.960;0.314;2022-10-03T00:25:44;100933.97;;;12.24;52.80
64628;BME280;59036;50.960;0.314;2022-10-03T00:28:23;100935.20;;;12.76;52.51
64628;BME280;59036;50.960;0.314;2022-10-03T00:31:06;100941.87;;;13.09;51.84
64628;BME280;59036;50.960;0.314;2022-10-03T00:33:44;100948.35;;;12.40;52.59
64628;BME280;59036;50.960;0.314;2022-10-03T00:36:23;100950.10;;;12.27;53.32
64628;BME280;59036;50.960;0.314;2022-10-03T00:39:08;100952.06;;;12.43;52.40
64628;BME280;59036;50.960;0.314;2022-10-03T00:42:07;100952.66;;;13.00;51.69
64628;BME280;59036;50.960;0.314;2022-10-03T00:47:29;100958.01;;;13.29;51.98
64628;BME280;59036;50.960;0.314;2022-10-03T00:50:14;100962.12;;;13.58;50.41
64628;BME280;59036;50.960;0.314;2022-10-03T00:52:57;100968.28;;;13.29;50.67
64628;BME280;59036;50.960;0.314;2022-10-03T00:55:41;100964.75;;;13.23;50.74
64628;BME280;59036;50.960;0.314;2022-10-03T00:58:27;100966.06;;;13.21;50.28
64628;BME280;59036;50.960;0.314;2022-10-03T01:01:02;100970.60;;;13.52;50.39
64628;BME280;59036;50.960;0.314;2022-10-03T01:03:40;100969.75;;;13.08;50.83
64628;BME280;59036;50.960;0.314;2022-10-03T01:06:22;100968.31;;;13.09;50.18
64628;BME280;59036;50.960;0.314;2022-10-03T01:09:03;100965.05;;;13.22;51.18
64628;BME280;59036;50.960;0.314;2022-10-03T01:11:41;100967.58;;;12.92;50.48
64628;BME280;59036;50.960;0.314;2022-10-03T01:14:27;100967.55;;;12.04;52.08
64628;BME280;59036;50.960;0.314;2022-10-03T01:17:07;100967.26;;;12.86;50.72
64628;BME280;59036;50.960;0.314;2022-10-03T01:19:53;100972.21;;;12.33;51.48
64628;BME280;59036;50.960;0.314;2022-10-03T01:22:39;100974.70;;;12.77;51.19
64628;BME280;59036;50.960;0.314;2022-10-03T01:25:11;100977.59;;;12.59;51.31
64628;BME280;59036;50.960;0.314;2022-10-03T01:27:48;100975.84;;;12.67;51.24
64628;BME280;59036;50.960;0.314;2022-10-03T01:30:22;100972.52;;;12.29;52.47
64628;BME280;59036;50.960;0.314;2022-10-03T01:32:54;100968.58;;;12.09;52.29
64628;BME280;59036;50.960;0.314;2022-10-03T01:35:30;100967.52;;;13.55;50.99
64628;BME280;59036;50.960;0.314;2022-10-03T01:38:11;100962.04;;;12.92;51.54
64628;BME280;59036;50.960;0.314;2022-10-03T01:40:48;100966.14;;;12.22;52.08
64628;BME280;59036;50.960;0.314;2022-10-03T01:43:19;100968.26;;;12.38;52.56
64628;BME280;59036;50.960;0.314;2022-10-03T01:45:56;100971.31;;;12.11;51.92
64628;BME280;59036;50.960;0.314;2022-10-03T01:48:33;100966.72;;;12.92;51.61
64628;BME280;59036;50.960;0.314;2022-10-03T01:51:06;100959.91;;;12.86;50.99
64628;BME280;59036;50.960;0.314;2022-10-03T01:53:45;100961.03;;;12.39;51.76
64628;BME280;59036;50.960;0.314;2022-10-03T01:56:20;100965.11;;;12.79;51.00
64628;BME280;59036;50.960;0.314;2022-10-03T01:58:59;100972.03;;;12.87;50.04
64628;BME280;59036;50.960;0.314;2022-10-03T02:01:35;100968.56;;;12.83;50.56
64628;BME280;59036;50.960;0.314;2022-10-03T02:04:13;100964.42;;;13.10;50.26
64628;BME280;59036;50.960;0.314;2022-10-03T02:06:50;100966.66;;;12.55;50.90
64628;BME280;59036;50.960;0.314;2022-10-03T02:09:27;100967.83;;;12.64;51.09
64628;BME280;59036;50.960;0.314;2022-10-03T02:12:08;100964.02;;;12.84;51.06
64628;BME280;59036;50.960;0.314;2022-10-03T02:14:47;100965.91;;;13.35;49.98
64628;BME280;59036;50.960;0.314;2022-10-03T02:17:24;100959.98;;;12.84;49.96
64628;BME280;59036;50.960;0.314;2022-10-03T02:19:59;100959.93;;;13.31;49.81
64628;BME280;59036;50.960;0.314;2022-10-03T02:22:30;100955.89;;;12.51;50.12
64628;BME280;59036;50.960;0.314;2022-10-03T02:25:10;100953.42;;;13.83;48.50
64628;BME280;59036;50.960;0.314;2022-10-03T02:28:04;100951.99;;;13.69;48.90
64628;BME280;59036;50.960;0.314;2022-10-03T02:30:50;100953.01;;;13.69;48.84
64628;BME280;59036;50.960;0.314;2022-10-03T02:33:47;100949.88;;;13.39;48.95
64628;BME280;59036;50.960;0.314;2022-10-03T02:36:39;100952.56;;;13.36;49.27
64628;BME280;59036;50.960;0.314;2022-10-03T02:39:38;100951.26;;;13.56;49.08
64628;BME280;59036;50.960;0.314;2022-10-03T02:45:06;100951.42;;;13.88;49.41
64628;BME280;59036;50.960;0.314;2022-10-03T02:50:21;100953.82;;;13.63;49.81
64628;BME280;59036;50.960;0.314;2022-10-03T02:53:14;100949.68;;;13.77;49.01
64628;BME280;59036;50.960;0.314;2022-10-03T02:56:12;100948.06;;;13.83;49.16
64628;BME280;59036;50.960;0.314;2022-10-03T02:59:02;100944.95;;;13.73;48.69
64628;BME280;59036;50.960;0.314;2022-10-03T03:01:50;100943.49;;;13.45;48.74
64628;BME280;59036;50.960;0.314;2022-10-03T03:04:40;100943.56;;;13.93;48.30
64628;BME280;59036;50.960;0.314;2022-10-03T03:07:30;100943.72;;;13.85;48.42
64628;BME280;59036;50.960;0.314;2022-10-03T03:10:51;100947.89;;;13.35;49.35
64628;BME280;59036;50.960;0.314;2022-10-03T03:13:42;100950.87;;;13.64;48.77
64628;BME280;59036;50.960;0.314;2022-10-03T03:16:34;100953.79;;;13.42;49.60
64628;BME280;59036;50.960;0.314;2022-10-03T03:19:15;100951.85;;;13.32;50.07
64628;BME280;59036;50.960;0.314;2022-10-03T03:21:55;100955.05;;;13.60;49.70
64628;BME280;59036;50.960;0.314;2022-10-03T03:24:40;100956.19;;;13.20;50.48
64628;BME280;59036;50.960;0.314;2022-10-03T03:27:25;100951.14;;;13.01;50.55
64628;BME280;59036;50.960;0.314;2022-10-03T03:30:02;100953.44;;;13.31;50.52
64628;BME280;59036;50.960;0.314;2022-10-03T03:32:42;100952.35;;;13.05;50.49
64628;BME280;59036;50.960;0.314;2022-10-03T03:35:21;100946.36;;;12.70;51.76
64628;BME280;59036;50.960;0.314;2022-10-03T03:38:02;100944.26;;;13.30;51.11
64628;BME280;59036;50.960;0.314;2022-10-03T03:40:44;100946.85;;;13.27;50.63
64628;BME280;59036;50.960;0.314;2022-10-03T03:43:31;100944.83;;;13.23;50.62
64628;BME280;59036;50.960;0.314;2022-10-03T03:46:15;100941.71;;;13.19;50.44
64628;BME280;59036;50.960;0.314;2022-10-03T03:48:57;100938.75;;;13.71;49.97
64628;BME280;59036;50.960;0.314;2022-10-03T03:51:32;100938.30;;;12.76;50.34
64628;BME280;59036;50.960;0.314;2022-10-03T03:54:15;100936.58;;;13.73;49.27
64628;BME280;59036;50.960;0.314;2022-10-03T03:57:05;100933.61;;;12.94;50.69
64628;BME280;59036;50.960;0.314;2022-10-03T03:59:46;100928.54;;;13.25;50.25
64628;BME280;59036;50.960;0.314;2022-10-03T04:02:29;100925.74;;;13.66;49.66
64628;BME280;59036;50.960;0.314;2022-10-03T04:05:07;100923.74;;;13.37;49.67
64628;BME280;59036;50.960;0.314;2022-10-03T04:07:47;100924.10;;;13.61;49.33
64628;BME280;59036;50.960;0.314;2022-10-03T04:10:26;100923.75;;;13.41;49.90
64628;BME280;59036;50.960;0.314;2022-10-03T04:13:12;100923.18;;;13.56;49.62
64628;BME280;59036;50.960;0.314;2022-10-03T04:16:15;100921.39;;;13.76;49.30
64628;BME280;59036;50.960;0.314;2022-10-03T04:18:55;100916.71;;;14.05;49.23
64628;BME280;59036;50.960;0.314;2022-10-03T04:21:38;100915.47;;;13.93;49.01
64628;BME280;59036;50.960;0.314;2022-10-03T04:24:22;100915.54;;;14.12;48.66
64628;BME280;59036;50.960;0.314;2022-10-03T04:27:07;100913.93;;;13.58;49.66
64628;BME280;59036;50.960;0.314;2022-10-03T04:29:42;100905.40;;;13.88;49.24
64628;BME280;59036;50.960;0.314;2022-10-03T04:32:22;100904.97;;;13.58;49.59
64628;BME280;59036;50.960;0.314;2022-10-03T04:35:15;100906.33;;;13.84;49.29
64628;BME280;59036;50.960;0.314;2022-10-03T04:37:55;100907.97;;;13.79;49.40
64628;BME280;59036;50.960;0.314;2022-10-03T04:40:40;100906.31;;;13.26;50.58
64628;BME280;59036;50.960;0.314;2022-10-03T04:43:14;100905.25;;;13.52;50.06
64628;BME280;59036;50.960;0.314;2022-10-03T04:45:56;100898.33;;;13.80;49.60
64628;BME280;59036;50.960;0.314;2022-10-03T04:48:32;100899.28;;;13.51;49.81
64628;BME280;59036;50.960;0.314;2022-10-03T04:51:07;100895.27;;;14.06;49.12
64628;BME280;59036;50.960;0.314;2022-10-03T04:53:46;100896.75;;;13.98;49.41
64628;BME280;59036;50.960;0.314;2022-10-03T04:56:39;100894.75;;;13.90;49.59
64628;BME280;59036;50.960;0.314;2022-10-03T04:59:24;100899.17;;;13.23;50.60
64628;BME280;59036;50.960;0.314;2022-10-03T05:01:59;100902.47;;;13.77;49.83
64628;BME280;59036;50.960;0.314;2022-10-03T05:04:33;100898.86;;;13.95;49.59
64628;BME280;59036;50.960;0.314;2022-10-03T05:07:12;100894.91;;;14.13;49.13
64628;BME280;59036;50.960;0.314;2022-10-03T05:09:49;100897.70;;;13.87;48.72
64628;BME280;59036;50.960;0.314;2022-10-03T05:12:30;100903.10;;;14.41;48.67
64628;BME280;59036;50.960;0.314;2022-10-03T05:15:13;100900.06;;;14.16;48.58
64628;BME280;59036;50.960;0.314;2022-10-03T05:17:50;100898.79;;;14.03;49.09
64628;BME280;59036;50.960;0.314;2022-10-03T05:20:34;100903.24;;;14.13;49.50
64628;BME280;59036;50.960;0.314;2022-10-03T05:23:16;100907.19;;;14.31;49.14
64628;BME280;59036;50.960;0.314;2022-10-03T05:25:55;100913.92;;;14.00;48.88
64628;BME280;59036;50.960;0.314;2022-10-03T05:28:32;100912.01;;;13.95;49.15
64628;BME280;59036;50.960;0.314;2022-10-03T05:31:11;100914.14;;;13.94;49.46
64628;BME280;59036;50.960;0.314;2022-10-03T05:33:48;100911.39;;;13.87;49.24
64628;BME280;59036;50.960;0.314;2022-10-03T05:36:28;100908.26;;;14.16;48.93
64628;BME280;59036;50.960;0.314;2022-10-03T05:39:25;100906.15;;;14.33;48.46
64628;BME280;59036;50.960;0.314;2022-10-03T05:41:55;100905.99;;;14.36;48.37
64628;BME280;59036;50.960;0.314;2022-10-03T05:44:36;100904.66;;;14.11;48.70
64628;BME280;59036;50.960;0.314;2022-10-03T05:47:10;100907.92;;;14.52;48.56
64628;BME280;59036;50.960;0.314;2022-10-03T05:49:49;100910.81;;;14.35;48.57
64628;BME280;59036;50.960;0.314;2022-10-03T05:52:36;100911.10;;;13.84;50.09
64628;BME280;59036;50.960;0.314;2022-10-03T05:55:27;100908.90;;;13.85;49.80
64628;BME280;59036;50.960;0.314;2022-10-03T05:58:17;100918.76;;;13.51;50.52
64628;BME280;59036;50.960;0.314;2022-10-03T06:01:04;100922.63;;;13.98;49.67
64628;BME280;59036;50.960;0.314;2022-10-03T06:03:56;100922.37;;;13.94;49.71
64628;BME280;59036;50.960;0.314;2022-10-03T06:06:37;100906.96;;;14.67;48.32
64628;BME280;59036;50.960;0.314;2022-10-03T06:09:34;100905.56;;;14.21;48.02
64628;BME280;59036;50.960;0.314;2022-10-03T06:12:08;100913.57;;;14.97;47.07
64628;BME280;59036;50.960;0.314;2022-10-03T06:15:14;100909.14;;;14.85;46.72
64628;BME280;59036;50.960;0.314;2022-10-03T06:17:55;100906.82;;;14.65;47.07
64628;BME280;59036;50.960;0.314;2022-10-03T06:21:01;100917.05;;;15.04;46.98
64628;BME280;59036;50.960;0.314;2022-10-03T06:25:49;100914.57;;;14.47;47.31
64628;BME280;59036;50.960;0.314;2022-10-03T06:28:31;100921.75;;;14.96;47.02
64628;BME280;59036;50.960;0.314;2022-10-03T06:31:39;100920.06;;;15.05;46.29
64628;BME280;59036;50.960;0.314;2022-10-03T06:34:29;100919.51;;;14.84;46.77
64628;BME280;59036;50.960;0.314;2022-10-03T06:37:21;100921.01;;;15.25;46.42
64628;BME280;59036;50.960;0.314;2022-10-03T06:40:25;100924.29;;;12.99;48.53
64628;BME280;59036;50.960;0.314;2022-10-03T06:43:13;100920.36;;;13.92;48.51
64628;BME280;59036;50.960;0.314;2022-10-03T06:46:00;100914.88;;;14.45;47.25
64628;BME280;59036;50.960;0.314;2022-10-03T06:48:59;100912.39;;;14.26;47.48
64628;BME280;59036;50.960;0.314;2022-10-03T06:51:49;100913.03;;;14.25;48.42
64628;BME280;59036;50.960;0.314;2022-10-03T06:55:14;100918.58;;;13.54;48.65
64628;BME280;59036;50.960;0.314;2022-10-03T06:59:09;100916.90;;;14.12;48.19
64628;BME280;59036;50.960;0.314;2022-10-03T07:04:30;100923.58;;;13.79;48.40
64628;BME280;59036;50.960;0.314;2022-10-03T07:07:14;100915.19;;;15.31;46.14
64628;BME280;59036;50.960;0.314;2022-10-03T07:10:04;100917.39;;;15.33;45.77
64628;BME280;59036;50.960;0.314;2022-10-03T07:15:17;100923.88;;;15.92;45.96
64628;BME280;59036;50.960;0.314;2022-10-03T07:18:04;100928.43;;;15.47;44.68
64628;BME280;59036;50.960;0.314;2022-10-03T07:20:57;100934.83;;;15.18;45.65
64628;BME280;59036;50.960;0.314;2022-10-03T07:24:01;100940.75;;;14.93;47.13
64628;BME280;59036;50.960;0.314;2022-10-03T07:26:56;100943.82;;;15.17;47.34
64628;BME280;59036;50.960;0.314;2022-10-03T07:30:18;100943.87;;;16.03;45.16
64628;BME280;59036;50.960;0.314;2022-10-03T07:33:20;100944.23;;;15.81;46.02
64628;BME280;59036;50.960;0.314;2022-10-03T07:36:20;100938.20;;;14.70;47.05
64628;BME280;59036;50.960;0.314;2022-10-03T07:39:04;100942.57;;;12.76;49.35
64628;BME280;59036;50.960;0.314;2022-10-03T07:41:56;100943.88;;;13.80;48.78
64628;BME280;59036;50.960;0.314;2022-10-03T07:45:17;100952.02;;;13.82;48.24
64628;BME280;59036;50.960;0.314;2022-10-03T07:49:09;100945.09;;;14.26;48.28
64628;BME280;59036;50.960;0.314;2022-10-03T07:51:44;100950.75;;;14.04;48.01
64628;BME280;59036;50.960;0.314;2022-10-03T07:54:30;100952.76;;;13.13;49.64
64628;BME280;59036;50.960;0.314;2022-10-03T07:57:40;100952.45;;;12.38;51.96
64628;BME280;59036;50.960;0.314;2022-10-03T08:00:19;100961.28;;;13.37;50.70
64628;BME280;59036;50.960;0.314;2022-10-03T08:05:16;100964.22;;;13.43;52.09
64628;BME280;59036;50.960;0.314;2022-10-03T08:08:42;100974.06;;;13.97;50.61
64628;BME280;59036;50.960;0.314;2022-10-03T08:11:31;100976.95;;;14.52;49.10
64628;BME280;59036;50.960;0.314;2022-10-03T08:14:16;100973.42;;;13.48;51.58
64628;BME280;59036;50.960;0.314;2022-10-03T08:17:08;100962.46;;;13.64;52.82
64628;BME280;59036;50.960;0.314;2022-10-03T08:20:32;100964.80;;;14.41;51.94
64628;BME280;59036;50.960;0.314;2022-10-03T08:23:23;100965.00;;;13.45;52.88
64628;BME280;59036;50.960;0.314;2022-10-03T08:26:07;100961.82;;;13.32;54.39
64628;BME280;59036;50.960;0.314;2022-10-03T08:28:52;100964.21;;;13.64;52.97
64628;BME280;59036;50.960;0.314;2022-10-03T08:31:40;100965.04;;;13.06;54.77
64628;BME280;59036;50.960;0.314;2022-10-03T08:34:41;100964.23;;;12.71;56.63
64628;BME280;59036;50.960;0.314;2022-10-03T08:37:30;100964.39;;;13.09;55.90
64628;BME280;59036;50.960;0.314;2022-10-03T08:40:56;100969.51;;;13.09;55.63
64628;BME280;59036;50.960;0.314;2022-10-03T08:43:47;100970.63;;;12.89;56.56
64628;BME280;59036;50.960;0.314;2022-10-03T08:46:45;100969.06;;;12.99;57.46
64628;BME280;59036;50.960;0.314;2022-10-03T08:49:40;100973.33;;;12.69;59.61
64628;BME280;59036;50.960;0.314;2022-10-03T08:52:22;100972.71;;;12.90;58.78
64628;BME280;59036;50.960;0.314;2022-10-03T08:55:40;100973.45;;;13.68;58.19
64628;BME280;59036;50.960;0.314;2022-10-03T08:58:24;100969.30;;;12.77;60.57
64628;BME280;59036;50.960;0.314;2022-10-03T09:01:13;100966.59;;;13.10;61.50
64628;BME280;59036;50.960;0.314;2022-10-03T09:04:10;100967.38;;;12.75;61.89
64628;BME280;59036;50.960;0.314;2022-10-03T09:07:15;100964.47;;;13.24;62.41
64628;BME280;59036;50.960;0.314;2022-10-03T09:10:13;100963.65;;;13.10;62.44
64628;BME280;59036;50.960;0.314;2022-10-03T09:14:12;100966.96;;;12.22;
64628;BME280;59036;50.960;0.314;2022-10-03T09:16:52;100969.91;;;13.14;64.76
64628;BME280;59036;50.960;0.314;2022-10-03T09:22:02;100975.74;;;13.76;64.97
64628;BME280;59036;50.960;0.314;2022-10-03T09:25:20;100966.18;;;13.17;65.59
64628;BME280;59036;50.960;0.314;2022-10-03T09:28:10;100971.37;;;12.80;67.41
64628;BME280;59036;50.960;0.314;2022-10-03T09:30:51;100971.06;;;12.54;68.18
64628;BME280;59036;50.960;0.314;2022-10-03T09:35:00;100969.86;;;13.48;68.05
64628;BME280;59036;50.960;0.314;2022-10-03T09:37:46;100977.31;;;13.70;67.00
64628;BME280;59036;50.960;0.314;2022-10-03T09:40:57;100970.40;;;12.85;69.05
64628;BME280;59036;50.960;0.314;2022-10-03T09:43:52;100963.92;;;12.92;71.21
64628;BME280;59036;50.960;0.314;2022-10-03T09:46:40;100966.56;;;12.39;73.18
64628;BME280;59036;50.960;0.314;2022-10-03T09:51:31;100971.26;;;13.88;70.15
64628;BME280;59036;50.960;0.314;2022-10-03T09:54:51;100976.64;;;13.66;70.12
64628;BME280;59036;50.960;0.314;2022-10-03T09:58:25;100972.51;;;12.99;70.42
64628;BME280;59036;50.960;0.314;2022-10-03T10:01:10;100965.39;;;13.26;70.37
64628;BME280;59036;50.960;0.314;2022-10-03T10:04:56;100966.17;;;13.56;71.01
64628;BME280;59036;50.960;0.314;2022-10-03T10:08:09;100968.55;;;12.50;72.56
64628;BME280;59036;50.960;0.314;2022-10-03T10:11:13;100965.55;;;13.18;72.36
64628;BME280;59036;50.960;0.314;2022-10-03T10:16:12;100966.91;;;12.96;74.48
64628;BME280;59036;50.960;0.314;2022-10-03T10:19:03;100963.99;;;12.52;73.96
64628;BME280;59036;50.960;0.314;2022-10-03T10:22:39;100965.11;;;13.06;72.63
64628;BME280;59036;50.960;0.314;2022-10-03T10:26:05;100964.36;;;12.81;73.84
64628;BME280;59036;50.960;0.314;2022-10-03T10:28:57;100961.53;;;13.14;74.13
64628;BME280;59036;50.960;0.314;2022-10-03T10:31:54;100960.16;;;12.45;74.68
64628;BME280;59036;50.960;0.314;2022-10-03T10:38:10;100960.02;;;12.70;75.60
64628;BME280;59036;50.960;0.314;2022-10-03T10:41:17;100951.07;;;12.79;72.46
64628;BME280;59036;50.960;0.314;2022-10-03T10:44:33;100947.11;;;12.70;72.57
64628;BME280;59036;50.960;0.314;2022-10-03T10:47:20;100953.06;;;12.62;73.25
64628;BME280;59036;50.960;0.314;2022-10-03T10:50:27;100949.91;;;12.61;72.28
64628;BME280;59036;50.960;0.314;2022-10-03T10:58:03;100947.52;;;14.38;69.21
64628;BME280;59036;50.960;0.314;2022-10-03T11:00:52;100942.90;;;13.54;66.17
64628;BME280;59036;50.960;0.314;2022-10-03T11:05:02;100940.23;;;14.44;65.99
64628;BME280;59036;50.960;0.314;2022-10-03T11:09:01;100937.83;;;14.15;65.42
64628;BME280;59036;50.960;0.314;2022-10-03T11:12:21;100936.14;;;13.59;66.39
64628;BME280;59036;50.960;0.314;2022-10-03T11:19:40;100935.64;;;13.96;69.26
64628;BME280;59036;50.960;0.314;2022-10-03T11:22:57;100929.41;;;14.06;65.09
64628;BME280;59036;50.960;0.314;2022-10-03T11:28:31;100923.24;;;13.93;68.16
64628;BME280;59036;50.960;0.314;2022-10-03T11:32:22;100920.00;;;13.16;66.56
64628;BME280;59036;50.960;0.314;2022-10-03T11:36:14;100922.11;;;13.76;66.48
64628;BME280;59036;50.960;0.314;2022-10-03T11:38:58;100920.16;;;13.99;66.41
64628;BME280;59036;50.960;0.314;2022-10-03T11:41:38;100918.15;;;13.70;64.35
64628;BME280;59036;50.960;0.314;2022-10-03T11:44:16;100915.72;;;13.90;63.64
64628;BME280;59036;50.960;0.314;2022-10-03T11:47:01;100916.18;;;13.98;61.88
64628;BME280;59036;50.960;0.314;2022-10-03T11:49:47;100915.13;;;13.45;61.37
64628;BME280;59036;50.960;0.314;2022-10-03T11:52:27;100916.89;;;13.61;62.85
64628;BME280;59036;50.960;0.314;2022-10-03T11:55:08;100916.24;;;13.87;61.07
64628;BME280;59036;50.960;0.314;2022-10-03T11:57:47;100916.96;;;14.19;58.63
64628;BME280;59036;50.960;0.314;2022-10-03T12:00:20;100916.21;;;14.19;60.38
64628;BME280;59036;50.960;0.314;2022-10-03T12:03:02;100912.35;;;14.23;60.26
64628;BME280;59036;50.960;0.314;2022-10-03T12:05:48;100913.46;;;14.14;61.33
64628;BME280;59036;50.960;0.314;2022-10-03T12:08:23;100915.38;;;14.69;59.84
64628;BME280;59036;50.960;0.314;2022-10-03T12:11:01;100911.09;;;14.74;59.79
64628;BME280;59036;50.960;0.314;2022-10-03T12:13:36;100909.68;;;14.33;57.84
64628;BME280;59036;50.960;0.314;2022-10-03T12:16:14;100906.65;;;14.80;58.93
64628;BME280;59036;50.960;0.314;2022-10-03T12:18:55;100905.55;;;14.86;58.72
64628;BME280;59036;50.960;0.314;2022-10-03T12:21:31;100902.24;;;14.76;58.39
64628;BME280;59036;50.960;0.314;2022-10-03T12:24:14;100900.56;;;14.85;57.73
64628;BME280;59036;50.960;0.314;2022-10-03T12:26:51;100897.26;;;14.84;55.90
64628;BME280;59036;50.960;0.314;2022-10-03T12:29:21;100895.96;;;15.29;55.43
64628;BME280;59036;50.960;0.314;2022-10-03T12:32:01;100897.02;;;15.42;52.98
64628;BME280;59036;50.960;0.314;2022-10-03T12:34:40;100891.83;;;14.61;54.96
64628;BME280;59036;50.960;0.314;2022-10-03T12:37:35;100889.23;;;15.64;55.40
64628;BME280;59036;50.960;0.314;2022-10-03T12:40:15;100889.32;;;15.55;52.94
64628;BME280;59036;50.960;0.314;2022-10-03T12:42:49;100881.79;;;15.60;53.26
64628;BME280;59036;50.960;0.314;2022-10-03T12:45:25;100877.81;;;15.67;55.12
64628;BME280;59036;50.960;0.314;2022-10-03T12:48:03;100881.37;;;15.60;54.67
64628;BME280;59036;50.960;0.314;2022-10-03T12:50:42;100879.00;;;16.11;53.97
64628;BME280;59036;50.960;0.314;2022-10-03T12:53:29;100874.91;;;16.60;51.78
64628;BME280;59036;50.960;0.314;2022-10-03T12:56:04;100874.19;;;16.89;48.86
64628;BME280;59036;50.960;0.314;2022-10-03T12:58:42;100872.98;;;16.04;50.43
64628;BME280;59036;50.960;0.314;2022-10-03T13:01:21;100868.02;;;15.94;51.15
64628;BME280;59036;50.960;0.314;2022-10-03T13:03:54;100865.86;;;16.74;50.56
64628;BME280;59036;50.960;0.314;2022-10-03T13:07:12;100864.75;;;16.64;51.98
64628;BME280;59036;50.960;0.314;2022-10-03T13:09:56;100861.65;;;16.09;52.47
64628;BME280;59036;50.960;0.314;2022-10-03T13:12:34;100865.07;;;15.68;52.91
64628;BME280;59036;50.960;0.314;2022-10-03T13:16:01;100863.23;;;15.22;51.91
64628;BME280;59036;50.960;0.314;2022-10-03T13:18:52;100858.61;;;15.32;53.99
64628;BME280;59036;50.960;0.314;2022-10-03T13:21:33;100857.54;;;15.58;50.79
64628;BME280;59036;50.960;0.314;2022-10-03T13:24:08;100856.47;;;15.68;52.79
64628;BME280;59036;50.960;0.314;2022-10-03T13:26:50;100851.66;;;15.86;51.85
64628;BME280;59036;50.960;0.314;2022-10-03T13:29:24;100850.69;;;15.88;51.81
64628;BME280;59036;50.960;0.314;2022-10-03T13:32:05;100846.82;;;15.46;52.63
64628;BME280;59036;50.960;0.314;2022-10-03T13:34:50;100843.43;;;15.07;53.28
64628;BME280;59036;50.960;0.314;2022-10-03T13:37:27;100844.14;;;15.00;53.19
64628;BME280;59036;50.960;0.314;2022-10-03T13:40:03;100845.35;;;15.15;53.83
64628;BME280;59036;50.960;0.314;2022-10-03T13:42:37;100840.64;;;14.89;53.63
64628;BME280;59036;50.960;0.314;2022-10-03T13:45:14;100836.58;;;15.38;54.90
64628;BME280;59036;50.960;0.314;2022-10-03T13:47:49;100828.39;;;15.32;54.91
64628;BME280;59036;50.960;0.314;2022-10-03T13:50:22;100823.16;;;15.69;54.12
64628;BME280;59036;50.960;0.314;2022-10-03T13:52:56;100825.52;;;15.25;57.33
64628;BME280;59036;50.960;0.314;2022-10-03T13:55:31;100829.35;;;15.33;55.03
64628;BME280;59036;50.960;0.314;2022-10-03T13:58:15;100821.68;;;15.33;53.96
64628;BME280;59036;50.960;0.314;2022-10-03T14:01:01;100820.56;;;15.18;53.00
64628;BME280;59036;50.960;0.314;2022-10-03T14:03:41;100814.42;;;15.38;53.46
64628;BME280;59036;50.960;0.314;2022-10-03T14:06:17;100803.23;;;15.28;53.99
64628;BME280;59036;50.960;0.314;2022-10-03T14:09:19;100798.57;;;15.17;55.57
64628;BME280;59036;50.960;0.314;2022-10-03T14:11:56;100800.54;;;15.18;57.25
64628;BME280;59036;50.960;0.314;2022-10-03T14:14:56;100793.42;;;14.38;59.47
64628;BME280;59036;50.960;0.314;2022-10-03T14:17:38;100788.21;;;14.45;57.98
64628;BME280;59036;50.960;0.314;2022-10-03T14:20:19;100790.83;;;14.42;58.75
64628;BME280;59036;50.960;0.314;2022-10-03T14:22:58;100787.53;;;14.19;59.82
64628;BME280;59036;50.960;0.314;2022-10-03T14:25:32;100782.54;;;14.30;59.85
64628;BME280;59036;50.960;0.314;2022-10-03T14:28:08;100780.55;;;14.51;58.79
64628;BME280;59036;50.960;0.314;2022-10-03T14:30:49;100778.31;;;14.47;57.53
64628;BME280;59036;50.960;0.314;2022-10-03T14:33:23;100774.16;;;14.32;58.41
64628;BME280;59036;50.960;0.314;2022-10-03T14:36:10;100776.06;;;14.14;58.52
64628;BME280;59036;50.960;0.314;2022-10-03T14:38:59;100775.85;;;13.98;59.76
64628;BME280;59036;50.960;0.314;2022-10-03T14:41:42;100771.87;;;13.94;61.11
64628;BME280;59036;50.960;0.314;2022-10-03T14:44:13;100769.35;;;13.76;62.36
64628;BME280;59036;50.960;0.314;2022-10-03T14:46:48;100762.27;;;14.15;62.27
64628;BME280;59036;50.960;0.314;2022-10-03T14:49:21;100758.18;;;14.39;60.81
64628;BME280;59036;50.960;0.314;2022-10-03T14:51:55;100756.28;;;14.49;60.61
64628;BME280;59036;50.960;0.314;2022-10-03T14:54:26;100754.16;;;14.18;61.54
64628;BME280;59036;50.960;0.314;2022-10-03T14:56:56;100749.04;;;14.39;59.67
64628;BME280;59036;50.960;0.314;2022-10-03T14:59:27;100748.56;;;13.99;61.56
64628;BME280;59036;50.960;0.314;2022-10-03T15:02:14;100746.14;;;13.97;62.30
64628;BME280;59036;50.960;0.314;2022-10-03T15:04:55;100741.77;;;13.84;61.59
64628;BME280;59036;50.960;0.314;2022-10-03T15:07:33;100742.19;;;14.25;61.64
64628;BME280;59036;50.960;0.314;2022-10-03T15:10:03;100736.56;;;13.81;63.15
64628;BME280;59036;50.960;0.314;2022-10-03T15:12:33;100734.82;;;14.06;63.14
64628;BME280;59036;50.960;0.314;2022-10-03T15:15:05;100732.04;;;14.22;63.78
64628;BME280;59036;50.960;0.314;2022-10-03T15:17:41;100732.00;;;13.19;65.19